sensor_id;sensor_type;location;lat;lon;timestamp;temperature;humidity
21602;DHT22;10963;50.934;4.668;2023-09-19T00:00:48;16.80;99.90
21602;DHT22;10963;50.934;4.668;2023-09-19T00:03:15;16.90;99.90
21602;DHT22;10963;50.934;4.668;2023-09-19T00:05:43;16.90;99.90
21602;DHT22;10963;50.934;4.668;2023-09-19T00:08:09;16.90;99.90
21602;DHT22;10963;50.934;4.668;2023-09-19T00:10:35;16.80;99.90
21602;DHT22;10963;50.934;4.668;2023-09-19T00:13:03;16.70;99.90
21602;DHT22;10963;50.934;4.668;2023-09-19T00:15:40;16.70;99.90
21602;DHT22;10963;50.934;4.668;2023-09-19T00:18:07;16.70;99.90
21602;DHT22;10963;50.934;4.668;2023-09-19T00:20:40;16.70;99.90
21602;DHT22;10963;50.934;4.668;2023-09-19T00:23:07;16.70;99.90
21602;DHT22;10963;50.934;4.668;2023-09-19T00:25:39;16.80;99.90
21602;DHT22;10963;50.934;4.668;2023-09-19T00:28:08;16.90;99.90
21602;DHT22;10963;50.934;4.668;2023-09-19T00:30:35;16.90;99.90
21602;DHT22;10963;50.934;4.668;2023-09-19T00:33:01;16.90;99.90
21602;DHT22;10963;50.934;4.668;2023-09-19T00:35:31;16.90;99.90
21602;DHT22;10963;50.934;4.668;2023-09-19T00:37:56;16.90;99.90
21602;DHT22;10963;50.934;4.668;2023-09-19T00:40:22;17.00;99.90
21602;DHT22;10963;50.934;4.668;2023-09-19T00:42:57;16.90;99.90
21602;DHT22;10963;50.934;4.668;2023-09-19T00:45:25;16.90;99.90
21602;DHT22;10963;50.934;4.668;2023-09-19T00:47:53;16.80;99.90
21602;DHT22;10963;50.934;4.668;2023-09-19T00:50:25;16.70;99.90
21602;DHT22;10963;50.934;4.668;2023-09-19T00:52:54;16.70;99.90
21602;DHT22;10963;50.934;4.668;2023-09-19T00:55:24;16.60;99.90
21602;DHT22;10963;50.934;4.668;2023-09-19T00:57:50;16.60;99.90
21602;DHT22;10963;50.934;4.668;2023-09-19T01:00:16;16.60;99.90
21602;DHT22;10963;50.934;4.668;2023-09-19T01:02:47;16.60;99.90
21602;DHT22;10963;50.934;4.668;2023-09-19T01:05:15;16.70;99.90
21602;DHT22;10963;50.934;4.668;2023-09-19T01:07:44;16.70;99.90
21602;DHT22;10963;50.934;4.668;2023-09-19T01:10:16;16.60;99.90
21602;DHT22;10963;50.934;4.668;2023-09-19T01:21:29;16.50;99.90
21602;DHT22;10963;50.934;4.668;2023-09-19T01:29:33;16.40;99.90
21602;DHT22;10963;50.934;4.668;2023-09-19T01:32:08;16.50;99.90
21602;DHT22;10963;50.934;4.668;2023-09-19T01:34:49;16.50;99.90
21602;DHT22;10963;50.934;4.668;2023-09-19T01:37:21;16.40;99.90
21602;DHT22;10963;50.934;4.668;2023-09-19T01:40:02;16.20;99.90
21602;DHT22;10963;50.934;4.668;2023-09-19T01:45:11;16.20;99.90
21602;DHT22;10963;50.934;4.668;2023-09-19T01:47:54;16.20;99.90
21602;DHT22;10963;50.934;4.668;2023-09-19T01:53:06;16.20;99.90
21602;DHT22;10963;50.934;4.668;2023-09-19T01:55:39;16.20;99.90
21602;DHT22;10963;50.934;4.668;2023-09-19T01:58:17;16.30;99.90
21602;DHT22;10963;50.934;4.668;2023-09-19T02:00:49;16.10;99.90
21602;DHT22;10963;50.934;4.668;2023-09-19T02:03:21;16.10;99.90
21602;DHT22;10963;50.934;4.668;2023-09-19T02:05:53;16.20;99.90
21602;DHT22;10963;50.934;4.668;2023-09-19T02:08:20;16.10;99.90
21602;DHT22;10963;50.934;4.668;2023-09-19T02:10:49;16.10;99.90
21602;DHT22;10963;50.934;4.668;2023-09-19T02:13:19;16.20;99.90
21602;DHT22;10963;50.934;4.668;2023-09-19T02:15:45;16.20;99.90
21602;DHT22;10963;50.934;4.668;2023-09-19T02:18:14;16.00;99.90
21602;DHT22;10963;50.934;4.668;2023-09-19T02:20:43;16.00;99.90
21602;DHT22;10963;50.934;4.668;2023-09-19T02:23:09;16.10;99.90
21602;DHT22;10963;50.934;4.668;2023-09-19T02:25:38;16.10;99.90
21602;DHT22;10963;50.934;4.668;2023-09-19T02:28:04;16.00;99.90
21602;DHT22;10963;50.934;4.668;2023-09-19T02:30:31;15.90;99.90
21602;DHT22;10963;50.934;4.668;2023-09-19T02:32:57;15.90;99.90
21602;DHT22;10963;50.934;4.668;2023-09-19T02:35:23;15.90;99.90
21602;DHT22;10963;50.934;4.668;2023-09-19T02:37:49;16.00;99.90
21602;DHT22;10963;50.934;4.668;2023-09-19T02:40:15;16.10;99.90
21602;DHT22;10963;50.934;4.668;2023-09-19T02:42:54;16.20;99.90
21602;DHT22;10963;50.934;4.668;2023-09-19T02:45:24;16.20;99.90
21602;DHT22;10963;50.934;4.668;2023-09-19T02:47:50;16.20;99.90
21602;DHT22;10963;50.934;4.668;2023-09-19T02:50:19;16.20;99.90
21602;DHT22;10963;50.934;4.668;2023-09-19T02:52:46;16.30;99.90
21602;DHT22;10963;50.934;4.668;2023-09-19T02:55:18;16.30;99.90
21602;DHT22;10963;50.934;4.668;2023-09-19T02:57:49;16.30;99.90
21602;DHT22;10963;50.934;4.668;2023-09-19T03:00:18;16.50;99.90
21602;DHT22;10963;50.934;4.668;2023-09-19T03:02:53;16.50;99.90
21602;DHT22;10963;50.934;4.668;2023-09-19T03:05:22;16.60;99.90
21602;DHT22;10963;50.934;4.668;2023-09-19T03:07:49;16.70;99.90
21602;DHT22;10963;50.934;4.668;2023-09-19T03:10:19;16.50;99.90
21602;DHT22;10963;50.934;4.668;2023-09-19T03:12:46;16.40;99.90
21602;DHT22;10963;50.934;4.668;2023-09-19T03:15:12;16.30;99.90
21602;DHT22;10963;50.934;4.668;2023-09-19T03:17:43;16.30;99.90
21602;DHT22;10963;50.934;4.668;2023-09-19T03:20:13;16.30;99.90
21602;DHT22;10963;50.934;4.668;2023-09-19T03:22:39;16.20;99.90
21602;DHT22;10963;50.934;4.668;2023-09-19T03:25:08;16.10;99.90
21602;DHT22;10963;50.934;4.668;2023-09-19T03:27:42;16.10;99.90
21602;DHT22;10963;50.934;4.668;2023-09-19T03:30:08;16.00;99.90
21602;DHT22;10963;50.934;4.668;2023-09-19T03:32:43;16.00;99.90
21602;DHT22;10963;50.934;4.668;2023-09-19T03:35:09;16.00;99.90
21602;DHT22;10963;50.934;4.668;2023-09-19T03:37:37;16.10;99.90
21602;DHT22;10963;50.934;4.668;2023-09-19T03:40:05;16.00;99.90
21602;DHT22;10963;50.934;4.668;2023-09-19T03:42:35;15.90;99.90
21602;DHT22;10963;50.934;4.668;2023-09-19T03:45:06;15.90;99.90
21602;DHT22;10963;50.934;4.668;2023-09-19T03:47:34;15.90;99.90
21602;DHT22;10963;50.934;4.668;2023-09-19T03:50:00;16.00;99.90
21602;DHT22;10963;50.934;4.668;2023-09-19T03:52:26;15.90;99.90
21602;DHT22;10963;50.934;4.668;2023-09-19T03:54:54;15.90;99.90
21602;DHT22;10963;50.934;4.668;2023-09-19T03:57:19;15.90;99.90
21602;DHT22;10963;50.934;4.668;2023-09-19T03:59:46;16.00;99.90
21602;DHT22;10963;50.934;4.668;2023-09-19T04:02:13;16.10;99.90
21602;DHT22;10963;50.934;4.668;2023-09-19T04:04:52;16.10;99.90
21602;DHT22;10963;50.934;4.668;2023-09-19T04:07:20;16.10;99.90
21602;DHT22;10963;50.934;4.668;2023-09-19T04:09:51;16.20;99.90
21602;DHT22;10963;50.934;4.668;2023-09-19T04:12:19;16.10;99.90
21602;DHT22;10963;50.934;4.668;2023-09-19T04:14:44;16.00;99.90
21602;DHT22;10963;50.934;4.668;2023-09-19T04:17:10;16.00;99.90
21602;DHT22;10963;50.934;4.668;2023-09-19T04:19:36;16.00;99.90
21602;DHT22;10963;50.934;4.668;2023-09-19T04:22:02;16.10;99.90
21602;DHT22;10963;50.934;4.668;2023-09-19T04:24:29;16.00;99.90
21602;DHT22;10963;50.934;4.668;2023-09-19T04:26:55;16.00;99.90
21602;DHT22;10963;50.934;4.668;2023-09-19T04:29:22;15.90;99.90
21602;DHT22;10963;50.934;4.668;2023-09-19T04:31:50;15.90;99.90
21602;DHT22;10963;50.934;4.668;2023-09-19T04:34:19;16.00;99.90
21602;DHT22;10963;50.934;4.668;2023-09-19T04:36:45;15.90;99.90
21602;DHT22;10963;50.934;4.668;2023-09-19T04:39:13;15.80;99.90
21602;DHT22;10963;50.934;4.668;2023-09-19T04:41:38;15.80;99.90
21602;DHT22;10963;50.934;4.668;2023-09-19T04:44:08;15.70;99.90
21602;DHT22;10963;50.934;4.668;2023-09-19T04:46:37;15.70;99.90
21602;DHT22;10963;50.934;4.668;2023-09-19T04:49:02;15.50;99.90
21602;DHT22;10963;50.934;4.668;2023-09-19T04:51:28;15.50;99.90
21602;DHT22;10963;50.934;4.668;2023-09-19T04:53:59;15.40;99.90
21602;DHT22;10963;50.934;4.668;2023-09-19T04:56:25;15.40;99.90
21602;DHT22;10963;50.934;4.668;2023-09-19T04:58:51;15.40;99.90
21602;DHT22;10963;50.934;4.668;2023-09-19T05:01:17;15.40;99.90
21602;DHT22;10963;50.934;4.668;2023-09-19T05:03:43;15.20;99.90
21602;DHT22;10963;50.934;4.668;2023-09-19T05:06:10;15.30;99.90
21602;DHT22;10963;50.934;4.668;2023-09-19T05:08:35;15.30;99.90
21602;DHT22;10963;50.934;4.668;2023-09-19T05:11:04;15.30;99.90
21602;DHT22;10963;50.934;4.668;2023-09-19T05:13:31;15.30;99.90
21602;DHT22;10963;50.934;4.668;2023-09-19T05:16:00;15.30;99.90
21602;DHT22;10963;50.934;4.668;2023-09-19T05:18:27;15.30;99.90
21602;DHT22;10963;50.934;4.668;2023-09-19T05:20:53;15.40;99.90
21602;DHT22;10963;50.934;4.668;2023-09-19T05:23:20;15.40;99.90
21602;DHT22;10963;50.934;4.668;2023-09-19T05:25:46;15.40;99.90
21602;DHT22;10963;50.934;4.668;2023-09-19T05:28:12;15.50;99.90
21602;DHT22;10963;50.934;4.668;2023-09-19T05:30:40;15.50;99.90
21602;DHT22;10963;50.934;4.668;2023-09-19T05:33:11;15.40;99.90
21602;DHT22;10963;50.934;4.668;2023-09-19T05:35:37;15.40;99.90
21602;DHT22;10963;50.934;4.668;2023-09-19T05:38:05;15.30;99.90
21602;DHT22;10963;50.934;4.668;2023-09-19T05:40:34;15.40;99.90
21602;DHT22;10963;50.934;4.668;2023-09-19T05:43:01;15.40;99.90
21602;DHT22;10963;50.934;4.668;2023-09-19T05:45:30;15.40;99.90
21602;DHT22;10963;50.934;4.668;2023-09-19T05:48:10;15.50;99.90
21602;DHT22;10963;50.934;4.668;2023-09-19T05:50:37;15.50;99.90
21602;DHT22;10963;50.934;4.668;2023-09-19T05:53:03;15.50;99.90
21602;DHT22;10963;50.934;4.668;2023-09-19T05:55:34;15.40;99.90
21602;DHT22;10963;50.934;4.668;2023-09-19T05:58:03;15.40;99.90
21602;DHT22;10963;50.934;4.668;2023-09-19T06:00:29;15.40;99.90
21602;DHT22;10963;50.934;4.668;2023-09-19T06:02:57;15.40;99.90
21602;DHT22;10963;50.934;4.668;2023-09-19T06:05:26;15.40;99.90
21602;DHT22;10963;50.934;4.668;2023-09-19T06:07:54;15.40;99.90
21602;DHT22;10963;50.934;4.668;2023-09-19T06:10:20;15.40;99.90
21602;DHT22;10963;50.934;4.668;2023-09-19T06:12:49;15.50;99.90
21602;DHT22;10963;50.934;4.668;2023-09-19T06:15:15;15.50;99.90
21602;DHT22;10963;50.934;4.668;2023-09-19T06:17:52;15.60;99.90
21602;DHT22;10963;50.934;4.668;2023-09-19T06:20:27;15.70;99.90
21602;DHT22;10963;50.934;4.668;2023-09-19T06:22:53;15.80;99.90
21602;DHT22;10963;50.934;4.668;2023-09-19T06:25:21;15.80;99.90
21602;DHT22;10963;50.934;4.668;2023-09-19T06:27:51;15.90;99.90
21602;DHT22;10963;50.934;4.668;2023-09-19T06:30:25;15.90;99.90
21602;DHT22;10963;50.934;4.668;2023-09-19T06:33:01;15.90;99.90
21602;DHT22;10963;50.934;4.668;2023-09-19T06:35:29;16.00;99.90
21602;DHT22;10963;50.934;4.668;2023-09-19T06:37:58;16.20;99.90
21602;DHT22;10963;50.934;4.668;2023-09-19T06:40:23;16.30;99.90
21602;DHT22;10963;50.934;4.668;2023-09-19T06:42:53;16.40;99.90
21602;DHT22;10963;50.934;4.668;2023-09-19T06:45:20;16.50;99.90
21602;DHT22;10963;50.934;4.668;2023-09-19T06:47:48;16.50;99.90
21602;DHT22;10963;50.934;4.668;2023-09-19T06:50:25;16.60;99.90
21602;DHT22;10963;50.934;4.668;2023-09-19T06:52:55;16.80;99.90
21602;DHT22;10963;50.934;4.668;2023-09-19T06:55:22;16.50;99.90
21602;DHT22;10963;50.934;4.668;2023-09-19T06:57:54;16.60;99.90
21602;DHT22;10963;50.934;4.668;2023-09-19T07:00:20;16.70;99.90
21602;DHT22;10963;50.934;4.668;2023-09-19T07:03:07;16.90;99.90
21602;DHT22;10963;50.934;4.668;2023-09-19T07:05:37;16.90;99.90
21602;DHT22;10963;50.934;4.668;2023-09-19T07:08:05;16.90;99.90
21602;DHT22;10963;50.934;4.668;2023-09-19T07:10:34;16.70;99.90
21602;DHT22;10963;50.934;4.668;2023-09-19T07:13:00;16.80;99.90
21602;DHT22;10963;50.934;4.668;2023-09-19T07:15:27;16.80;99.90
21602;DHT22;10963;50.934;4.668;2023-09-19T07:17:53;16.80;99.90
21602;DHT22;10963;50.934;4.668;2023-09-19T07:20:20;16.90;99.90
21602;DHT22;10963;50.934;4.668;2023-09-19T07:22:48;16.90;99.90
21602;DHT22;10963;50.934;4.668;2023-09-19T07:25:18;17.10;99.90
21602;DHT22;10963;50.934;4.668;2023-09-19T07:27:44;17.20;99.90
21602;DHT22;10963;50.934;4.668;2023-09-19T07:30:11;17.20;99.90
21602;DHT22;10963;50.934;4.668;2023-09-19T07:32:37;17.20;99.90
21602;DHT22;10963;50.934;4.668;2023-09-19T07:35:04;17.20;99.90
21602;DHT22;10963;50.934;4.668;2023-09-19T07:37:33;17.30;99.90
21602;DHT22;10963;50.934;4.668;2023-09-19T07:40:07;17.30;99.90
21602;DHT22;10963;50.934;4.668;2023-09-19T07:42:37;17.40;99.90
21602;DHT22;10963;50.934;4.668;2023-09-19T07:45:07;17.60;99.90
21602;DHT22;10963;50.934;4.668;2023-09-19T07:47:36;17.70;99.90
21602;DHT22;10963;50.934;4.668;2023-09-19T07:50:04;17.60;99.90
21602;DHT22;10963;50.934;4.668;2023-09-19T07:52:32;17.60;99.90
21602;DHT22;10963;50.934;4.668;2023-09-19T07:54:59;17.60;99.90
21602;DHT22;10963;50.934;4.668;2023-09-19T07:57:26;17.50;99.90
21602;DHT22;10963;50.934;4.668;2023-09-19T07:59:55;17.50;99.90
21602;DHT22;10963;50.934;4.668;2023-09-19T08:02:27;17.60;99.90
21602;DHT22;10963;50.934;4.668;2023-09-19T08:04:53;17.80;99.90
21602;DHT22;10963;50.934;4.668;2023-09-19T08:07:19;17.80;99.90
21602;DHT22;10963;50.934;4.668;2023-09-19T08:09:45;17.80;99.90
21602;DHT22;10963;50.934;4.668;2023-09-19T08:12:14;18.00;99.90
21602;DHT22;10963;50.934;4.668;2023-09-19T08:14:43;18.20;99.90
21602;DHT22;10963;50.934;4.668;2023-09-19T08:17:09;18.30;99.90
21602;DHT22;10963;50.934;4.668;2023-09-19T08:19:34;18.30;99.90
21602;DHT22;10963;50.934;4.668;2023-09-19T08:22:02;18.40;99.90
21602;DHT22;10963;50.934;4.668;2023-09-19T08:24:31;18.50;99.90
21602;DHT22;10963;50.934;4.668;2023-09-19T08:26:58;18.60;99.90
21602;DHT22;10963;50.934;4.668;2023-09-19T08:29:24;18.90;99.90
21602;DHT22;10963;50.934;4.668;2023-09-19T08:31:57;18.80;99.90
21602;DHT22;10963;50.934;4.668;2023-09-19T08:34:23;18.70;99.90
21602;DHT22;10963;50.934;4.668;2023-09-19T08:36:55;18.80;99.90
21602;DHT22;10963;50.934;4.668;2023-09-19T08:39:25;18.80;99.90
21602;DHT22;10963;50.934;4.668;2023-09-19T08:42:02;19.00;99.90
21602;DHT22;10963;50.934;4.668;2023-09-19T08:44:28;19.10;99.90
21602;DHT22;10963;50.934;4.668;2023-09-19T08:47:11;19.20;99.90
21602;DHT22;10963;50.934;4.668;2023-09-19T08:52:37;19.20;99.90
21602;DHT22;10963;50.934;4.668;2023-09-19T08:55:10;19.30;99.90
21602;DHT22;10963;50.934;4.668;2023-09-19T08:57:37;19.30;99.90
21602;DHT22;10963;50.934;4.668;2023-09-19T09:00:08;19.30;99.90
21602;DHT22;10963;50.934;4.668;2023-09-19T09:02:40;19.30;99.90
21602;DHT22;10963;50.934;4.668;2023-09-19T09:05:08;19.40;99.90
21602;DHT22;10963;50.934;4.668;2023-09-19T09:07:38;19.60;99.90
21602;DHT22;10963;50.934;4.668;2023-09-19T09:10:06;19.70;99.90
21602;DHT22;10963;50.934;4.668;2023-09-19T09:12:35;19.90;99.90
21602;DHT22;10963;50.934;4.668;2023-09-19T09:15:05;20.00;99.90
21602;DHT22;10963;50.934;4.668;2023-09-19T09:17:31;19.90;99.90
21602;DHT22;10963;50.934;4.668;2023-09-19T09:19:59;20.10;99.90
21602;DHT22;10963;50.934;4.668;2023-09-19T09:22:25;20.10;99.90
21602;DHT22;10963;50.934;4.668;2023-09-19T09:24:53;20.20;99.90
21602;DHT22;10963;50.934;4.668;2023-09-19T09:27:20;20.40;99.90
21602;DHT22;10963;50.934;4.668;2023-09-19T09:29:49;20.70;99.90
21602;DHT22;10963;50.934;4.668;2023-09-19T09:34:48;20.10;99.90
21602;DHT22;10963;50.934;4.668;2023-09-19T09:37:18;20.10;99.90
21602;DHT22;10963;50.934;4.668;2023-09-19T09:39:55;20.40;99.90
21602;DHT22;10963;50.934;4.668;2023-09-19T09:42:36;20.60;99.90
21602;DHT22;10963;50.934;4.668;2023-09-19T09:45:14;20.50;99.90
21602;DHT22;10963;50.934;4.668;2023-09-19T09:47:42;20.40;99.90
21602;DHT22;10963;50.934;4.668;2023-09-19T09:50:27;20.40;99.90
21602;DHT22;10963;50.934;4.668;2023-09-19T09:53:26;20.40;99.90
21602;DHT22;10963;50.934;4.668;2023-09-19T09:56:00;20.50;99.90
21602;DHT22;10963;50.934;4.668;2023-09-19T09:58:26;20.40;99.90
21602;DHT22;10963;50.934;4.668;2023-09-19T10:00:58;20.20;99.90
21602;DHT22;10963;50.934;4.668;2023-09-19T10:03:41;20.00;99.90
21602;DHT22;10963;50.934;4.668;2023-09-19T10:06:17;19.80;99.90
21602;DHT22;10963;50.934;4.668;2023-09-19T10:09:08;19.80;99.90
21602;DHT22;10963;50.934;4.668;2023-09-19T10:11:44;19.70;99.90
21602;DHT22;10963;50.934;4.668;2023-09-19T10:14:16;20.00;99.90
21602;DHT22;10963;50.934;4.668;2023-09-19T10:16:48;20.10;99.90
21602;DHT22;10963;50.934;4.668;2023-09-19T10:19:30;20.00;99.90
21602;DHT22;10963;50.934;4.668;2023-09-19T10:22:02;19.90;99.90
21602;DHT22;10963;50.934;4.668;2023-09-19T10:24:30;19.80;99.90
21602;DHT22;10963;50.934;4.668;2023-09-19T10:26:57;20.10;99.90
21602;DHT22;10963;50.934;4.668;2023-09-19T10:29:24;20.20;99.90
21602;DHT22;10963;50.934;4.668;2023-09-19T10:31:52;20.40;99.90
21602;DHT22;10963;50.934;4.668;2023-09-19T10:34:22;20.60;99.90
21602;DHT22;10963;50.934;4.668;2023-09-19T10:36:51;20.70;99.90
21602;DHT22;10963;50.934;4.668;2023-09-19T10:39:20;20.80;99.90
21602;DHT22;10963;50.934;4.668;2023-09-19T10:41:54;20.90;99.90
21602;DHT22;10963;50.934;4.668;2023-09-19T10:44:27;21.00;99.90
21602;DHT22;10963;50.934;4.668;2023-09-19T10:46:54;21.20;99.90
21602;DHT22;10963;50.934;4.668;2023-09-19T10:49:20;21.20;99.90
21602;DHT22;10963;50.934;4.668;2023-09-19T10:51:49;21.00;99.90
21602;DHT22;10963;50.934;4.668;2023-09-19T10:54:20;20.90;99.90
21602;DHT22;10963;50.934;4.668;2023-09-19T10:56:55;20.90;99.90
21602;DHT22;10963;50.934;4.668;2023-09-19T10:59:24;21.00;99.90
21602;DHT22;10963;50.934;4.668;2023-09-19T11:01:58;20.90;99.90
21602;DHT22;10963;50.934;4.668;2023-09-19T11:12:08;21.30;99.90
21602;DHT22;10963;50.934;4.668;2023-09-19T11:14:40;21.40;99.90
21602;DHT22;10963;50.934;4.668;2023-09-19T11:30:46;22.20;99.90
21602;DHT22;10963;50.934;4.668;2023-09-19T11:33:30;22.30;99.90
21602;DHT22;10963;50.934;4.668;2023-09-19T11:46:52;22.10;99.90
21602;DHT22;10963;50.934;4.668;2023-09-19T11:49:19;22.10;99.90
21602;DHT22;10963;50.934;4.668;2023-09-19T11:51:51;22.10;99.90
21602;DHT22;10963;50.934;4.668;2023-09-19T11:54:17;21.90;99.90
21602;DHT22;10963;50.934;4.668;2023-09-19T11:56:45;21.60;99.90
21602;DHT22;10963;50.934;4.668;2023-09-19T11:59:11;21.70;99.90
21602;DHT22;10963;50.934;4.668;2023-09-19T12:01:51;21.60;99.90
21602;DHT22;10963;50.934;4.668;2023-09-19T12:07:13;21.80;99.90
21602;DHT22;10963;50.934;4.668;2023-09-19T12:12:31;21.70;99.90
21602;DHT22;10963;50.934;4.668;2023-09-19T12:15:00;21.70;99.90
21602;DHT22;10963;50.934;4.668;2023-09-19T12:17:38;21.60;99.90
21602;DHT22;10963;50.934;4.668;2023-09-19T12:20:06;21.40;99.90
21602;DHT22;10963;50.934;4.668;2023-09-19T12:22:42;21.30;99.90
21602;DHT22;10963;50.934;4.668;2023-09-19T12:25:09;21.60;99.90
21602;DHT22;10963;50.934;4.668;2023-09-19T12:27:47;21.40;99.90
21602;DHT22;10963;50.934;4.668;2023-09-19T12:30:14;21.30;99.90
21602;DHT22;10963;50.934;4.668;2023-09-19T12:32:40;21.50;99.90
21602;DHT22;10963;50.934;4.668;2023-09-19T12:35:10;21.60;99.90
21602;DHT22;10963;50.934;4.668;2023-09-19T12:37:44;21.60;99.90
21602;DHT22;10963;50.934;4.668;2023-09-19T12:40:23;21.50;99.90
21602;DHT22;10963;50.934;4.668;2023-09-19T12:42:54;21.60;99.90
21602;DHT22;10963;50.934;4.668;2023-09-19T12:45:32;21.50;99.90
21602;DHT22;10963;50.934;4.668;2023-09-19T12:48:23;21.50;99.90
21602;DHT22;10963;50.934;4.668;2023-09-19T12:51:10;21.60;99.90
21602;DHT22;10963;50.934;4.668;2023-09-19T12:53:44;21.80;99.90
21602;DHT22;10963;50.934;4.668;2023-09-19T12:56:16;21.80;99.90
21602;DHT22;10963;50.934;4.668;2023-09-19T12:58:51;21.90;99.90
21602;DHT22;10963;50.934;4.668;2023-09-19T13:01:19;22.00;99.90
21602;DHT22;10963;50.934;4.668;2023-09-19T13:03:45;22.20;99.90
21602;DHT22;10963;50.934;4.668;2023-09-19T13:06:11;22.40;99.90
21602;DHT22;10963;50.934;4.668;2023-09-19T13:08:39;22.50;99.90
21602;DHT22;10963;50.934;4.668;2023-09-19T13:11:12;22.60;99.90
21602;DHT22;10963;50.934;4.668;2023-09-19T13:13:39;22.60;99.90
21602;DHT22;10963;50.934;4.668;2023-09-19T13:16:05;22.20;99.90
21602;DHT22;10963;50.934;4.668;2023-09-19T13:18:53;22.10;99.90
21602;DHT22;10963;50.934;4.668;2023-09-19T13:21:30;21.70;99.90
21602;DHT22;10963;50.934;4.668;2023-09-19T13:24:22;21.80;99.90
21602;DHT22;10963;50.934;4.668;2023-09-19T13:26:48;21.40;99.90
21602;DHT22;10963;50.934;4.668;2023-09-19T13:29:15;21.50;99.90
21602;DHT22;10963;50.934;4.668;2023-09-19T13:31:50;21.80;99.90
21602;DHT22;10963;50.934;4.668;2023-09-19T13:34:18;22.10;99.90
21602;DHT22;10963;50.934;4.668;2023-09-19T13:36:45;22.00;99.90
21602;DHT22;10963;50.934;4.668;2023-09-19T13:39:14;22.10;99.90
21602;DHT22;10963;50.934;4.668;2023-09-19T13:41:41;21.90;99.90
21602;DHT22;10963;50.934;4.668;2023-09-19T13:44:08;21.80;99.90
21602;DHT22;10963;50.934;4.668;2023-09-19T13:46:36;21.90;99.90
21602;DHT22;10963;50.934;4.668;2023-09-19T13:49:02;21.90;99.90
21602;DHT22;10963;50.934;4.668;2023-09-19T13:51:31;21.70;99.90
21602;DHT22;10963;50.934;4.668;2023-09-19T13:54:00;21.60;99.90
21602;DHT22;10963;50.934;4.668;2023-09-19T13:56:28;21.90;99.90
21602;DHT22;10963;50.934;4.668;2023-09-19T13:58:55;21.90;99.90
21602;DHT22;10963;50.934;4.668;2023-09-19T14:01:21;21.80;99.90
21602;DHT22;10963;50.934;4.668;2023-09-19T14:03:49;21.50;99.90
21602;DHT22;10963;50.934;4.668;2023-09-19T14:06:17;21.40;99.90
21602;DHT22;10963;50.934;4.668;2023-09-19T14:08:44;21.70;99.90
21602;DHT22;10963;50.934;4.668;2023-09-19T14:11:16;21.70;99.90
21602;DHT22;10963;50.934;4.668;2023-09-19T14:13:44;21.70;99.90
21602;DHT22;10963;50.934;4.668;2023-09-19T14:16:12;22.10;99.90
21602;DHT22;10963;50.934;4.668;2023-09-19T14:18:38;22.30;99.90
21602;DHT22;10963;50.934;4.668;2023-09-19T14:21:05;22.20;99.90
21602;DHT22;10963;50.934;4.668;2023-09-19T14:23:40;21.70;99.90
21602;DHT22;10963;50.934;4.668;2023-09-19T14:26:11;21.60;99.90
21602;DHT22;10963;50.934;4.668;2023-09-19T14:28:40;21.70;99.90
21602;DHT22;10963;50.934;4.668;2023-09-19T14:31:07;21.70;99.90
21602;DHT22;10963;50.934;4.668;2023-09-19T14:33:36;21.90;99.90
21602;DHT22;10963;50.934;4.668;2023-09-19T14:36:07;21.70;99.90
21602;DHT22;10963;50.934;4.668;2023-09-19T14:38:35;21.70;99.90
21602;DHT22;10963;50.934;4.668;2023-09-19T14:41:05;21.90;99.90
21602;DHT22;10963;50.934;4.668;2023-09-19T14:43:32;22.10;99.90
21602;DHT22;10963;50.934;4.668;2023-09-19T14:46:05;22.30;99.90
21602;DHT22;10963;50.934;4.668;2023-09-19T14:48:33;22.50;99.90
21602;DHT22;10963;50.934;4.668;2023-09-19T14:51:03;22.60;99.90
21602;DHT22;10963;50.934;4.668;2023-09-19T14:53:30;22.30;99.90
21602;DHT22;10963;50.934;4.668;2023-09-19T14:55:59;22.30;99.90
21602;DHT22;10963;50.934;4.668;2023-09-19T14:58:25;22.20;99.90
21602;DHT22;10963;50.934;4.668;2023-09-19T15:00:53;21.90;99.90
21602;DHT22;10963;50.934;4.668;2023-09-19T15:03:21;21.90;99.90
21602;DHT22;10963;50.934;4.668;2023-09-19T15:05:50;21.90;99.90
21602;DHT22;10963;50.934;4.668;2023-09-19T15:08:16;21.90;99.90
21602;DHT22;10963;50.934;4.668;2023-09-19T15:10:49;22.00;99.90
21602;DHT22;10963;50.934;4.668;2023-09-19T15:13:21;22.00;99.90
21602;DHT22;10963;50.934;4.668;2023-09-19T15:15:46;21.70;99.90
21602;DHT22;10963;50.934;4.668;2023-09-19T15:18:14;21.50;99.90
21602;DHT22;10963;50.934;4.668;2023-09-19T15:20:46;21.40;99.90
21602;DHT22;10963;50.934;4.668;2023-09-19T15:23:13;21.30;99.90
21602;DHT22;10963;50.934;4.668;2023-09-19T15:25:38;21.10;99.90
21602;DHT22;10963;50.934;4.668;2023-09-19T15:28:08;21.20;99.90
21602;DHT22;10963;50.934;4.668;2023-09-19T15:30:38;21.20;99.90
21602;DHT22;10963;50.934;4.668;2023-09-19T15:33:06;21.20;99.90
21602;DHT22;10963;50.934;4.668;2023-09-19T15:35:34;21.20;99.90
21602;DHT22;10963;50.934;4.668;2023-09-19T15:38:02;21.30;99.90
21602;DHT22;10963;50.934;4.668;2023-09-19T15:40:33;21.30;99.90
21602;DHT22;10963;50.934;4.668;2023-09-19T15:42:59;21.40;99.90
21602;DHT22;10963;50.934;4.668;2023-09-19T15:45:28;21.50;99.90
21602;DHT22;10963;50.934;4.668;2023-09-19T15:47:54;21.50;99.90
21602;DHT22;10963;50.934;4.668;2023-09-19T15:50:22;21.40;99.90
21602;DHT22;10963;50.934;4.668;2023-09-19T15:52:53;21.40;99.90
21602;DHT22;10963;50.934;4.668;2023-09-19T15:55:26;21.30;99.90
21602;DHT22;10963;50.934;4.668;2023-09-19T15:57:52;21.10;99.90
21602;DHT22;10963;50.934;4.668;2023-09-19T16:00:21;21.10;99.90
21602;DHT22;10963;50.934;4.668;2023-09-19T16:02:47;20.90;99.90
21602;DHT22;10963;50.934;4.668;2023-09-19T16:05:15;20.90;99.90
21602;DHT22;10963;50.934;4.668;2023-09-19T16:07:41;20.80;99.90
21602;DHT22;10963;50.934;4.668;2023-09-19T16:10:07;20.60;99.90
21602;DHT22;10963;50.934;4.668;2023-09-19T16:12:33;20.50;99.90
21602;DHT22;10963;50.934;4.668;2023-09-19T16:14:59;20.60;99.90
21602;DHT22;10963;50.934;4.668;2023-09-19T16:17:25;20.70;99.90
21602;DHT22;10963;50.934;4.668;2023-09-19T16:19:51;20.60;99.90
21602;DHT22;10963;50.934;4.668;2023-09-19T16:22:17;20.50;99.90
21602;DHT22;10963;50.934;4.668;2023-09-19T16:24:42;20.40;99.90
21602;DHT22;10963;50.934;4.668;2023-09-19T16:27:14;20.40;99.90
21602;DHT22;10963;50.934;4.668;2023-09-19T16:29:40;20.30;99.90
21602;DHT22;10963;50.934;4.668;2023-09-19T16:32:09;20.20;99.90
21602;DHT22;10963;50.934;4.668;2023-09-19T16:34:34;20.30;99.90
21602;DHT22;10963;50.934;4.668;2023-09-19T16:37:00;20.30;99.90
21602;DHT22;10963;50.934;4.668;2023-09-19T16:39:33;20.30;99.90
21602;DHT22;10963;50.934;4.668;2023-09-19T16:42:02;20.30;99.90
21602;DHT22;10963;50.934;4.668;2023-09-19T16:44:27;20.40;99.90
21602;DHT22;10963;50.934;4.668;2023-09-19T16:46:55;20.30;99.90